createdAt,value
2023-05-22T00:01:50.018Z,100857.47
2023-05-22T00:04:21.512Z,100864.41
2023-05-22T00:06:49.867Z,100861.13
2023-05-22T00:09:18.094Z,100861.13
2023-05-22T00:11:46.202Z,100862.94
2023-05-22T00:14:14.255Z,100859.19
2023-05-22T00:16:42.183Z,100857.34
2023-05-22T00:19:16.700Z,100861.00
2023-05-22T00:21:45.483Z,100852.59
2023-05-22T00:24:13.577Z,100850.75
2023-05-22T00:26:41.275Z,100849.16
2023-05-22T00:29:09.544Z,100854.53
2023-05-22T00:31:37.692Z,100856.47
2023-05-22T00:34:05.882Z,100848.81
2023-05-22T00:36:33.637Z,100847.94
2023-05-22T00:39:01.651Z,100849.53
2023-05-22T00:41:29.636Z,100847.09
2023-05-22T00:43:57.852Z,100849.84
2023-05-22T00:46:25.658Z,100851.66
2023-05-22T00:48:53.726Z,100844.75
2023-05-22T00:51:22.738Z,100848.19
2023-05-22T00:53:51.214Z,100842.97
2023-05-22T00:56:19.579Z,100852.47
2023-05-22T00:58:48.125Z,100844.50
2023-05-22T01:01:16.165Z,100845.47
2023-05-22T01:03:46.075Z,100844.69
2023-05-22T01:06:18.468Z,100845.69
2023-05-22T01:08:46.553Z,100848.31
2023-05-22T01:11:36.998Z,100848.00
2023-05-22T01:14:25.693Z,100852.47
2023-05-22T01:17:16.306Z,100845.72
2023-05-22T01:19:50.918Z,100848.59
2023-05-22T01:22:44.028Z,100850.47
2023-05-22T01:25:26.673Z,100836.44
2023-05-22T01:28:10.101Z,100846.03
2023-05-22T01:30:52.737Z,100853.88
2023-05-22T01:33:22.081Z,100831.31
2023-05-22T01:35:54.189Z,100846.97
2023-05-22T01:38:22.519Z,100849.31
2023-05-22T01:40:51.196Z,100849.47
2023-05-22T01:43:19.112Z,100841.88
2023-05-22T01:45:47.469Z,100847.09
2023-05-22T01:48:15.184Z,100841.06
2023-05-22T01:50:45.390Z,100843.69
2023-05-22T01:53:33.184Z,100846.44
2023-05-22T01:56:10.143Z,100849.00
2023-05-22T01:58:52.573Z,100855.25
2023-05-22T02:01:22.718Z,100853.63
2023-05-22T02:03:56.657Z,100855.50
2023-05-22T02:06:29.112Z,100849.00
2023-05-22T02:08:57.161Z,100856.81
2023-05-22T02:11:28.503Z,100847.53
2023-05-22T02:13:57.571Z,100853.78
2023-05-22T02:16:25.889Z,100852.06
2023-05-22T02:19:06.365Z,100852.91
2023-05-22T02:21:36.207Z,100846.78
2023-05-22T02:24:04.109Z,100850.25
2023-05-22T02:26:32.440Z,100851.09
2023-05-22T02:29:01.423Z,100848.28
2023-05-22T02:31:29.880Z,100848.41
2023-05-22T02:33:58.059Z,100855.38
2023-05-22T02:36:26.416Z,100852.00
2023-05-22T02:38:55.579Z,100852.00
2023-05-22T02:41:25.193Z,100842.97
2023-05-22T02:43:53.809Z,100852.50
2023-05-22T02:46:21.945Z,100844.25
2023-05-22T02:48:49.729Z,100846.09
2023-05-22T02:51:19.707Z,100841.66
2023-05-22T02:53:47.985Z,100841.50
2023-05-22T02:56:16.091Z,100824.00
2023-05-22T02:58:43.832Z,100838.09
2023-05-22T03:01:11.831Z,100838.03
2023-05-22T03:03:39.656Z,100842.97
2023-05-22T03:06:08.949Z,100832.41
2023-05-22T03:08:41.686Z,100823.75
2023-05-22T03:11:10.134Z,100831.53
2023-05-22T03:13:37.840Z,100826.97
2023-05-22T03:16:06.357Z,100828.44
2023-05-22T03:18:34.117Z,100836.94
2023-05-22T03:21:02.218Z,100823.84
2023-05-22T03:23:29.974Z,100830.03
2023-05-22T03:25:58.043Z,100816.78
2023-05-22T03:28:30.002Z,100821.66
2023-05-22T03:30:58.098Z,100824.19
2023-05-22T03:33:29.827Z,100826.97
2023-05-22T03:35:57.977Z,100828.53
2023-05-22T03:38:26.386Z,100829.19
2023-05-22T03:40:54.836Z,100831.75
2023-05-22T03:43:22.729Z,100830.22
2023-05-22T03:45:51.581Z,100836.31
2023-05-22T03:48:20.073Z,100836.44
2023-05-22T03:50:48.222Z,100838.19
2023-05-22T03:53:15.960Z,100836.31
2023-05-22T03:55:44.072Z,100828.31
2023-05-22T03:58:11.782Z,100831.03
2023-05-22T04:00:40.408Z,100832.75
2023-05-22T04:03:13.051Z,100836.13
2023-05-22T04:05:41.451Z,100833.66
2023-05-22T04:08:10.749Z,100832.38
2023-05-22T04:10:39.144Z,100834.50
2023-05-22T04:13:07.116Z,100832.31
2023-05-22T04:15:35.429Z,100831.19
2023-05-22T04:18:03.261Z,100837.63
2023-05-22T04:20:32.351Z,100838.72
2023-05-22T04:23:00.053Z,100835.22
2023-05-22T04:25:28.046Z,100831.09
2023-05-22T04:27:55.839Z,100823.09
2023-05-22T04:30:25.770Z,100826.63
2023-05-22T04:32:53.764Z,100827.00
2023-05-22T04:35:23.630Z,100819.38
2023-05-22T04:37:51.633Z,100819.19
2023-05-22T04:40:19.776Z,100815.06
2023-05-22T04:42:47.946Z,100816.22
2023-05-22T04:45:16.015Z,100813.59
2023-05-22T04:47:43.835Z,100818.38
2023-05-22T04:50:12.112Z,100813.38
2023-05-22T04:52:39.899Z,100809.66
2023-05-22T04:55:08.651Z,100807.03
2023-05-22T04:57:36.419Z,100811.38
2023-05-22T05:00:06.047Z,100812.06
2023-05-22T05:02:35.632Z,100816.25
2023-05-22T05:05:03.897Z,100805.78
2023-05-22T05:07:31.654Z,100805.09
2023-05-22T05:09:59.663Z,100808.75
2023-05-22T05:12:28.180Z,100814.31
2023-05-22T05:14:56.494Z,100816.94
2023-05-22T05:17:24.254Z,100813.94
2023-05-22T05:19:52.263Z,100827.84
2023-05-22T05:22:20.120Z,100821.69
2023-05-22T05:24:48.198Z,100821.31
2023-05-22T05:27:16.077Z,100821.78
2023-05-22T05:29:45.633Z,100830.63
2023-05-22T05:32:22.637Z,100824.56
2023-05-22T05:35:12.495Z,100817.22
2023-05-22T05:37:49.997Z,100828.13
2023-05-22T05:40:19.222Z,100826.38
2023-05-22T05:42:51.391Z,100824.53
2023-05-22T05:45:24.006Z,100828.63
2023-05-22T05:47:53.164Z,100825.75
2023-05-22T05:50:21.446Z,100824.53
2023-05-22T05:52:49.253Z,100819.09
2023-05-22T05:55:19.444Z,100825.38
2023-05-22T05:57:48.418Z,100825.97
2023-05-22T06:00:23.672Z,100829.03
2023-05-22T06:02:52.980Z,100830.31
2023-05-22T06:05:34.985Z,100821.16
2023-05-22T06:08:19.934Z,100826.09
2023-05-22T06:10:48.425Z,100826.81
2023-05-22T06:13:34.172Z,100824.88
2023-05-22T06:16:05.719Z,100823.03
2023-05-22T06:18:35.037Z,100816.78
2023-05-22T06:21:03.016Z,100813.47
2023-05-22T06:23:30.961Z,100817.00
2023-05-22T06:25:59.410Z,100821.06
2023-05-22T06:28:27.950Z,100818.47
2023-05-22T06:30:58.054Z,100817.69
2023-05-22T06:33:28.152Z,100810.63
2023-05-22T06:35:56.668Z,100820.38
2023-05-22T06:38:24.524Z,100810.28
2023-05-22T06:40:52.494Z,100814.78
2023-05-22T06:43:23.773Z,100813.81
2023-05-22T06:45:56.332Z,100804.72
2023-05-22T06:48:24.182Z,100816.50
2023-05-22T06:51:02.665Z,100813.44
2023-05-22T06:53:30.473Z,100810.13
2023-05-22T06:55:58.980Z,100808.78
2023-05-22T06:58:36.966Z,100813.00
2023-05-22T07:01:07.888Z,100808.56
2023-05-22T07:03:41.211Z,100809.59
2023-05-22T07:06:29.212Z,100804.41
2023-05-22T07:08:57.721Z,100804.84
2023-05-22T07:11:25.918Z,100805.63
2023-05-22T07:13:53.755Z,100808.22
2023-05-22T07:16:23.597Z,100805.78
2023-05-22T07:18:51.514Z,100812.94
2023-05-22T07:21:19.840Z,100812.94
2023-05-22T07:23:48.549Z,100808.47
2023-05-22T07:26:16.679Z,100807.78
2023-05-22T07:28:51.204Z,100809.44
2023-05-22T07:31:19.394Z,100803.59
2023-05-22T07:33:48.884Z,100804.00
2023-05-22T07:36:19.163Z,100802.53
2023-05-22T07:38:47.335Z,100796.13
2023-05-22T07:41:15.890Z,100800.88
2023-05-22T07:43:43.944Z,100792.31
2023-05-22T07:46:15.591Z,100785.59
2023-05-22T07:48:55.186Z,100785.13
2023-05-22T07:51:23.332Z,100785.28
2023-05-22T07:53:53.469Z,100782.25
2023-05-22T07:56:22.241Z,100778.00
2023-05-22T07:58:52.089Z,100790.22
2023-05-22T08:01:22.621Z,100778.16
2023-05-22T08:03:50.519Z,100772.91
2023-05-22T08:06:19.090Z,100781.72
2023-05-22T08:08:46.956Z,100780.94
2023-05-22T08:11:14.948Z,100779.63
2023-05-22T08:13:42.811Z,100776.66
2023-05-22T08:16:11.193Z,100781.78
2023-05-22T08:18:39.037Z,100779.06
2023-05-22T08:21:07.086Z,100772.97
2023-05-22T08:23:36.469Z,100772.88
2023-05-22T08:26:04.893Z,100773.00
2023-05-22T08:28:32.855Z,100766.25
2023-05-22T08:31:01.141Z,100771.59
2023-05-22T08:33:28.945Z,100767.84
2023-05-22T08:35:56.888Z,100769.66
2023-05-22T08:38:24.679Z,100769.31
2023-05-22T08:40:55.800Z,100770.31
2023-05-22T08:43:24.625Z,100769.91
2023-05-22T08:46:06.098Z,100759.13
2023-05-22T08:48:34.274Z,100751.78
2023-05-22T08:51:06.094Z,100760.41
2023-05-22T08:53:38.995Z,100764.13
2023-05-22T08:56:08.729Z,100761.84
2023-05-22T08:58:38.366Z,100753.81
2023-05-22T09:01:07.531Z,100759.09
2023-05-22T09:03:37.768Z,100755.06
2023-05-22T09:06:11.177Z,100743.34
2023-05-22T09:08:39.404Z,100752.53
2023-05-22T09:11:07.453Z,100743.72
2023-05-22T09:13:35.263Z,100743.66
2023-05-22T09:16:11.436Z,100742.34
2023-05-22T09:18:40.176Z,100733.56
2023-05-22T09:21:21.568Z,100743.03
2023-05-22T09:24:01.347Z,100726.72
2023-05-22T09:26:29.974Z,100729.88
2023-05-22T09:29:00.135Z,100729.09
2023-05-22T09:31:32.015Z,100730.78
2023-05-22T09:34:00.066Z,100734.06
2023-05-22T09:36:34.849Z,100731.34
2023-05-22T09:39:04.450Z,100727.34
2023-05-22T09:41:37.746Z,100723.78
2023-05-22T09:44:26.981Z,100716.31
2023-05-22T09:46:55.876Z,100715.88
2023-05-22T09:49:23.587Z,100721.81
2023-05-22T09:51:54.281Z,100710.44
2023-05-22T09:54:25.830Z,100711.38
2023-05-22T09:56:59.275Z,100708.47
2023-05-22T09:59:30.531Z,100700.91
2023-05-22T10:02:02.057Z,100699.66
2023-05-22T10:04:33.189Z,100700.00
2023-05-22T10:07:03.793Z,100711.75
2023-05-22T10:09:35.758Z,100714.38
2023-05-22T10:12:08.124Z,100706.28
2023-05-22T10:14:36.714Z,100701.34
2023-05-22T10:17:07.005Z,100704.94
2023-05-22T10:19:39.458Z,100698.03
2023-05-22T10:22:11.206Z,100704.63
2023-05-22T10:24:41.252Z,100692.72
2023-05-22T10:27:09.320Z,100694.13
2023-05-22T10:29:58.246Z,100696.50
2023-05-22T10:32:42.539Z,100694.06
2023-05-22T10:35:58.029Z,100696.31
2023-05-22T10:38:26.180Z,100685.59
2023-05-22T10:40:54.909Z,100684.38
2023-05-22T10:43:23.588Z,100689.13
2023-05-22T10:46:06.570Z,100688.34
2023-05-22T10:48:39.527Z,100685.91
2023-05-22T10:51:08.549Z,100679.63
2023-05-22T10:53:37.094Z,100680.56
2023-05-22T10:56:14.112Z,100673.63
2023-05-22T10:58:57.665Z,100675.09
2023-05-22T11:01:28.611Z,100678.09
2023-05-22T11:04:07.178Z,100682.97
2023-05-22T11:06:49.020Z,100666.78
2023-05-22T11:09:31.897Z,100673.03
2023-05-22T11:12:25.153Z,100667.94
2023-05-22T11:14:58.127Z,100669.25
2023-05-22T11:17:36.353Z,100666.41
2023-05-22T11:20:05.836Z,100656.50
2023-05-22T11:22:38.387Z,100658.72
2023-05-22T11:25:20.301Z,100651.91
2023-05-22T11:27:49.280Z,100650.97
2023-05-22T11:30:17.779Z,100655.13
2023-05-22T11:32:48.061Z,100646.78
2023-05-22T11:35:17.887Z,100651.97
2023-05-22T11:37:46.206Z,100649.28
2023-05-22T11:40:22.059Z,100638.06
2023-05-22T11:42:50.070Z,100640.59
2023-05-22T11:45:18.159Z,100634.88
2023-05-22T11:47:46.574Z,100636.94
2023-05-22T11:50:17.932Z,100634.41
2023-05-22T11:52:53.687Z,100637.72
2023-05-22T11:55:22.964Z,100639.91
2023-05-22T11:57:50.769Z,100628.78
2023-05-22T12:00:19.401Z,100631.28
2023-05-22T12:02:50.398Z,100628.72
2023-05-22T12:05:21.707Z,100620.47
2023-05-22T12:07:49.822Z,100617.22
2023-05-22T12:10:18.062Z,100614.59
2023-05-22T12:12:48.139Z,100623.09
2023-05-22T12:15:22.625Z,100616.47
2023-05-22T12:17:54.671Z,100619.66
2023-05-22T12:20:22.695Z,100622.59
2023-05-22T12:22:50.491Z,100616.88
2023-05-22T12:25:18.549Z,100620.19
2023-05-22T12:27:46.403Z,100608.22
2023-05-22T12:30:15.449Z,100600.06
2023-05-22T12:32:49.096Z,100602.03
2023-05-22T12:35:18.161Z,100602.59
2023-05-22T12:37:52.254Z,100602.22
2023-05-22T12:40:20.529Z,100589.09
2023-05-22T12:42:48.887Z,100583.03
2023-05-22T12:45:18.091Z,100593.16
2023-05-22T12:47:46.285Z,100602.75
2023-05-22T12:50:14.692Z,100595.00
2023-05-22T12:52:42.367Z,100597.59
2023-05-22T12:55:11.611Z,100586.66
2023-05-22T12:57:39.393Z,100589.84
2023-05-22T13:00:07.937Z,100583.34
2023-05-22T13:02:35.839Z,100577.47
2023-05-22T13:05:04.214Z,100580.00
2023-05-22T13:07:32.430Z,100578.78
2023-05-22T13:10:00.583Z,100571.97
2023-05-22T13:12:28.305Z,100572.72
2023-05-22T13:14:56.418Z,100577.69
2023-05-22T13:17:24.482Z,100580.72
2023-05-22T13:19:54.514Z,100588.09
2023-05-22T13:22:22.976Z,100579.34
2023-05-22T13:24:51.173Z,100575.13
2023-05-22T13:27:19.294Z,100571.75
2023-05-22T13:29:47.253Z,100566.13
2023-05-22T13:32:15.301Z,100570.97
2023-05-22T13:34:43.694Z,100563.84
2023-05-22T13:37:11.717Z,100564.09
2023-05-22T13:39:39.984Z,100563.31
2023-05-22T13:42:08.374Z,100557.72
2023-05-22T13:44:36.404Z,100561.03
2023-05-22T13:47:05.200Z,100568.59
2023-05-22T13:49:33.304Z,100560.69
2023-05-22T13:52:01.082Z,100563.75
2023-05-22T13:54:29.302Z,100554.69
2023-05-22T13:56:57.849Z,100548.97
2023-05-22T13:59:26.168Z,100543.56
2023-05-22T14:01:53.922Z,100548.50
2023-05-22T14:04:21.925Z,100547.22
2023-05-22T14:06:49.731Z,100546.13
2023-05-22T14:09:18.149Z,100542.19
2023-05-22T14:11:46.563Z,100541.22
2023-05-22T14:14:14.598Z,100532.91
2023-05-22T14:16:42.406Z,100547.28
2023-05-22T14:19:10.590Z,100548.72
2023-05-22T14:21:38.418Z,100539.22
2023-05-22T14:24:06.586Z,100526.09
2023-05-22T14:26:34.347Z,100535.69
2023-05-22T14:29:02.515Z,100537.38
2023-05-22T14:31:30.448Z,100535.09
2023-05-22T14:33:58.535Z,100531.53
2023-05-22T14:36:26.268Z,100529.13
2023-05-22T14:38:57.050Z,100525.44
2023-05-22T14:41:24.775Z,100521.69
2023-05-22T14:43:52.740Z,100522.88
2023-05-22T14:46:20.538Z,100525.75
2023-05-22T14:48:48.956Z,100513.84
2023-05-22T14:51:18.410Z,100517.53
2023-05-22T14:53:46.461Z,100511.03
2023-05-22T14:56:14.214Z,100521.47
2023-05-22T14:58:42.310Z,100511.66
2023-05-22T15:01:10.067Z,100520.34
2023-05-22T15:03:38.324Z,100509.88
2023-05-22T15:06:06.229Z,100500.59
2023-05-22T15:08:34.195Z,100508.63
2023-05-22T15:11:01.929Z,100514.47
2023-05-22T15:13:29.967Z,100503.41
2023-05-22T15:15:58.513Z,100507.91
2023-05-22T15:18:27.323Z,100510.94
2023-05-22T15:20:55.350Z,100500.25
2023-05-22T15:23:25.454Z,100501.63
2023-05-22T15:25:54.368Z,100503.28
2023-05-22T15:28:23.209Z,100503.00
2023-05-22T15:30:50.933Z,100502.94
2023-05-22T15:33:18.989Z,100496.34
2023-05-22T15:35:47.638Z,100493.28
2023-05-22T15:38:16.698Z,100501.84
2023-05-22T15:40:44.729Z,100495.09
2023-05-22T15:43:12.767Z,100487.88
2023-05-22T15:45:41.136Z,100490.25
2023-05-22T15:48:09.420Z,100487.69
2023-05-22T15:50:37.233Z,100481.69
2023-05-22T15:53:05.247Z,100477.31
2023-05-22T15:55:34.026Z,100478.13
2023-05-22T15:58:07.779Z,100475.97
2023-05-22T16:00:41.059Z,100470.81
2023-05-22T16:03:11.367Z,100467.81
2023-05-22T16:05:40.350Z,100470.34
2023-05-22T16:08:10.523Z,100459.41
2023-05-22T16:10:41.483Z,100469.94
2023-05-22T16:13:10.725Z,100463.56
2023-05-22T16:15:40.329Z,100471.38
2023-05-22T16:18:09.736Z,100466.28
2023-05-22T16:20:37.695Z,100462.78
2023-05-22T16:23:05.765Z,100457.91
2023-05-22T16:25:33.495Z,100462.66
2023-05-22T16:28:01.517Z,100464.09
2023-05-22T16:30:30.153Z,100459.25
2023-05-22T16:32:58.397Z,100451.00
2023-05-22T16:35:26.234Z,100452.72
2023-05-22T16:37:54.220Z,100450.56
2023-05-22T16:40:22.078Z,100451.81
2023-05-22T16:42:51.737Z,100449.16
2023-05-22T16:45:19.557Z,100454.97
2023-05-22T16:47:47.541Z,100452.78
2023-05-22T16:50:15.461Z,100454.28
2023-05-22T16:52:43.433Z,100454.78
2023-05-22T16:55:11.272Z,100450.69
2023-05-22T16:57:40.201Z,100458.31
2023-05-22T17:00:10.946Z,100447.03
2023-05-22T17:02:39.306Z,100449.69
2023-05-22T17:05:08.266Z,100456.72
2023-05-22T17:07:36.213Z,100456.13
2023-05-22T17:10:04.070Z,100459.63
2023-05-22T17:12:32.213Z,100461.28
2023-05-22T17:14:59.999Z,100459.47
2023-05-22T17:17:28.175Z,100465.31
2023-05-22T17:19:56.122Z,100462.22
2023-05-22T17:22:24.180Z,100463.25
2023-05-22T17:24:51.890Z,100469.81
2023-05-22T17:27:34.478Z,100471.22
2023-05-22T17:30:04.868Z,100473.69
2023-05-22T17:32:33.121Z,100469.72
2023-05-22T17:35:02.104Z,100468.66
2023-05-22T17:37:30.147Z,100466.94
2023-05-22T17:39:57.874Z,100475.28
2023-05-22T17:42:25.942Z,100468.84
2023-05-22T17:44:53.709Z,100469.97
2023-05-22T17:47:21.909Z,100471.66
2023-05-22T17:49:49.775Z,100464.53
2023-05-22T17:52:17.794Z,100469.00
2023-05-22T17:54:45.636Z,100463.47
2023-05-22T17:57:13.770Z,100453.03
2023-05-22T17:59:41.694Z,100458.34
2023-05-22T18:02:09.858Z,100452.81
2023-05-22T18:04:37.712Z,100447.94
2023-05-22T18:07:05.952Z,100447.13
2023-05-22T18:09:33.668Z,100449.09
2023-05-22T18:12:03.583Z,100454.34
2023-05-22T18:14:31.748Z,100453.63
2023-05-22T18:16:59.620Z,100448.47
2023-05-22T18:19:27.725Z,100444.34
2023-05-22T18:21:55.656Z,100454.88
2023-05-22T18:24:25.063Z,100446.28
2023-05-22T18:26:54.761Z,100446.44
2023-05-22T18:29:23.046Z,100448.31
2023-05-22T18:31:50.952Z,100444.81
2023-05-22T18:34:19.082Z,100448.44
2023-05-22T18:36:46.781Z,100455.41
2023-05-22T18:39:14.939Z,100448.38
2023-05-22T18:41:42.610Z,100455.41
2023-05-22T18:44:10.682Z,100456.72
2023-05-22T18:46:38.515Z,100455.16
2023-05-22T18:49:06.504Z,100454.38
2023-05-22T18:51:35.803Z,100460.34
2023-05-22T18:54:03.852Z,100462.97
2023-05-22T18:56:32.066Z,100459.81
2023-05-22T18:59:00.117Z,100465.00
2023-05-22T19:01:27.956Z,100472.81
2023-05-22T19:03:55.981Z,100464.44
2023-05-22T19:06:25.957Z,100469.44
2023-05-22T19:08:53.928Z,100471.00
2023-05-22T19:11:21.749Z,100470.84
2023-05-22T19:13:49.781Z,100472.88
2023-05-22T19:16:17.687Z,100471.81
2023-05-22T19:18:46.127Z,100470.25
2023-05-22T19:21:13.906Z,100472.81
2023-05-22T19:23:42.871Z,100477.06
2023-05-22T19:26:10.811Z,100476.25
2023-05-22T19:28:38.841Z,100470.81
2023-05-22T19:31:06.597Z,100467.84
2023-05-22T19:33:34.823Z,100470.09
2023-05-22T19:36:02.977Z,100467.16
2023-05-22T19:38:31.258Z,100473.75
2023-05-22T19:40:59.026Z,100471.28
2023-05-22T19:43:27.180Z,100479.72
2023-05-22T19:45:55.602Z,100475.72
2023-05-22T19:48:23.737Z,100469.00
2023-05-22T19:50:51.562Z,100471.47
2023-05-22T19:53:19.590Z,100469.47
2023-05-22T19:55:47.711Z,100470.25
2023-05-22T19:58:15.859Z,100471.13
2023-05-22T20:00:44.035Z,100474.66
2023-05-22T20:03:12.622Z,100465.59
2023-05-22T20:05:40.777Z,100465.72
2023-05-22T20:08:10.248Z,100476.72
2023-05-22T20:10:38.272Z,100472.06
2023-05-22T20:13:07.798Z,100467.34
2023-05-22T20:15:35.604Z,100465.72
2023-05-22T20:18:03.999Z,100468.34
2023-05-22T20:20:31.838Z,100469.88
2023-05-22T20:22:59.855Z,100466.00
2023-05-22T20:25:27.601Z,100463.66
2023-05-22T20:27:55.625Z,100464.19
2023-05-22T20:30:23.476Z,100457.47
2023-05-22T20:32:52.043Z,100456.16
2023-05-22T20:35:20.268Z,100456.03
2023-05-22T20:37:48.808Z,100459.31
2023-05-22T20:40:17.535Z,100456.03
2023-05-22T20:42:46.373Z,100461.75
2023-05-22T20:45:16.135Z,100457.78
2023-05-22T20:47:44.724Z,100461.50
2023-05-22T20:50:12.561Z,100460.31
2023-05-22T20:52:40.695Z,100460.03
2023-05-22T20:55:09.019Z,100463.88
2023-05-22T20:57:36.943Z,100461.19
2023-05-22T21:00:06.597Z,100458.00
2023-05-22T21:02:34.699Z,100459.38
2023-05-22T21:05:02.666Z,100455.13
2023-05-22T21:07:30.677Z,100456.81
2023-05-22T21:09:58.461Z,100454.88
2023-05-22T21:12:26.448Z,100452.47
2023-05-22T21:14:54.176Z,100452.94
2023-05-22T21:17:22.848Z,100454.94
2023-05-22T21:19:50.624Z,100458.72
2023-05-22T21:22:18.625Z,100459.97
2023-05-22T21:24:46.395Z,100458.28
2023-05-22T21:27:14.406Z,100457.84
2023-05-22T21:29:42.095Z,100451.31
2023-05-22T21:32:10.095Z,100451.22
2023-05-22T21:34:37.791Z,100451.78
2023-05-22T21:37:05.914Z,100443.97
2023-05-22T21:39:33.637Z,100443.44
2023-05-22T21:42:01.665Z,100443.44
2023-05-22T21:44:29.363Z,100441.09
2023-05-22T21:46:57.340Z,100449.97
2023-05-22T21:49:25.085Z,100445.69
2023-05-22T21:51:53.170Z,100446.72
2023-05-22T21:54:21.025Z,100442.59
2023-05-22T21:56:49.033Z,100443.81
2023-05-22T21:59:16.806Z,100449.16
2023-05-22T22:01:44.816Z,100455.66
2023-05-22T22:04:12.710Z,100445.38
2023-05-22T22:06:41.009Z,100451.69
2023-05-22T22:09:09.319Z,100439.66
2023-05-22T22:11:37.293Z,100444.06
2023-05-22T22:14:05.274Z,100448.47
2023-05-22T22:16:35.659Z,100448.81
2023-05-22T22:19:04.936Z,100441.84
2023-05-22T22:21:33.601Z,100448.78
2023-05-22T22:24:01.364Z,100439.09
2023-05-22T22:26:30.724Z,100436.81
2023-05-22T22:28:58.983Z,100451.03
2023-05-22T22:31:26.982Z,100442.81
2023-05-22T22:33:54.707Z,100440.56
2023-05-22T22:36:22.944Z,100435.75
2023-05-22T22:38:50.784Z,100436.06
2023-05-22T22:41:18.774Z,100438.66
2023-05-22T22:43:46.856Z,100434.63
2023-05-22T22:46:14.857Z,100439.09
2023-05-22T22:48:42.730Z,100437.31
2023-05-22T22:51:10.811Z,100442.03
2023-05-22T22:53:38.782Z,100436.56
2023-05-22T22:56:06.855Z,100442.34
2023-05-22T22:58:34.642Z,100438.25
2023-05-22T23:01:02.677Z,100431.81
2023-05-22T23:03:30.661Z,100434.63
2023-05-22T23:05:58.608Z,100436.63
2023-05-22T23:08:26.397Z,100432.09
2023-05-22T23:10:54.549Z,100433.34
2023-05-22T23:13:22.345Z,100421.34
2023-05-22T23:15:50.452Z,100415.31
2023-05-22T23:18:18.265Z,100410.13
2023-05-22T23:20:46.465Z,100407.66
2023-05-22T23:23:14.283Z,100403.56
2023-05-22T23:25:42.665Z,100401.13
2023-05-22T23:28:10.662Z,100401.34
2023-05-22T23:30:38.752Z,100388.31
2023-05-22T23:33:06.517Z,100399.81
2023-05-22T23:35:34.551Z,100405.25
2023-05-22T23:38:02.383Z,100400.13
2023-05-22T23:40:30.410Z,100400.22
2023-05-22T23:42:58.200Z,100401.34
2023-05-22T23:45:26.268Z,100400.56
2023-05-22T23:47:54.162Z,100394.31
2023-05-22T23:50:22.168Z,100390.28
2023-05-22T23:52:49.933Z,100389.94
2023-05-22T23:55:17.983Z,100395.44
2023-05-22T23:57:45.760Z,100397.31
